Wednesday, October 18, 2017, 3:42 AM EDT
Back to Local

KPYM, Plymouth Municipal Airport

Location: Carver, MA, United States Lat: 41.9
Local Time: 3:42 AM EDT ( 7:42 GMT) Lon: -70.733
Time Zone: US/Eastern Elev: 147 ft

Show me the last for .
Show Decoded

2017-10-18 02:52 METAR KPYM 180652Z AUTO 20004KT 10SM CLR 07/04 A3023 RMK AO2 SLP237 T00670039 =
2017-10-18 01:52 METAR KPYM 180552Z AUTO 22005KT 10SM CLR 08/04 A3024 RMK AO2 SLP241 T00780039
                 10083 20061 56009 =
2017-10-18 00:52 METAR KPYM 180452Z AUTO 23004KT 10SM CLR 07/04 A3025 RMK AO2 SLP245 T00720039
                 401440044 =
2017-10-17 23:52 METAR KPYM 180352Z AUTO 21003KT 10SM CLR 07/03 A3026 RMK AO2 SLP246 T00670028 =
2017-10-17 22:52 METAR KPYM 180252Z AUTO 21005KT 10SM CLR 07/03 A3027 RMK AO2 SLP250 T00720033
                 51006 =
2017-10-17 21:52 METAR KPYM 180152Z AUTO 23005KT 10SM CLR 07/03 A3027 RMK AO2 SLP250 T00720028 =
2017-10-17 20:52 METAR KPYM 180052Z AUTO 22005KT 10SM CLR 08/03 A3026 RMK AO2 SLP249 T00780028 =
2017-10-17 19:52 METAR KPYM 172352Z AUTO 21006KT 10SM CLR 08/03 A3025 RMK AO2 SLP245 T00830028
                 10144 20083 53007 =
2017-10-17 18:52 METAR KPYM 172252Z AUTO 19006KT 10SM CLR 09/03 A3025 RMK AO2 SLP243 T00940028 =
2017-10-17 17:52 METAR KPYM 172152Z AUTO VRB04KT 10SM CLR 11/02 A3023 RMK AO2 SLP237 T01110022 =
2017-10-17 16:52 METAR KPYM 172052Z AUTO 22006KT 10SM CLR 13/M01 A3023 RMK AO2 SLP238 T01331006
                 56008 =
2017-10-17 15:52 METAR KPYM 171952Z AUTO VRB03KT 10SM CLR 14/M01 A3023 RMK AO2 SLP238 T01391011 =
2017-10-17 14:52 METAR KPYM 171852Z AUTO 02004KT 10SM CLR 13/00 A3024 RMK AO2 SLP241 T01330000 $
                 =
2017-10-17 13:52 METAR KPYM 171752Z AUTO 00000KT 10SM CLR 13/00 A3025 RMK AO2 SLP245 T01280000
                 10133 20061 58010 $ =
2017-10-17 12:52 METAR KPYM 171652Z AUTO 07004KT 10SM CLR 13/01 A3026 RMK AO2 SLP249 T01280006 $
                 =
2017-10-17 11:52 METAR KPYM 171552Z AUTO 33007KT 300V360 10SM CLR 12/01 A3028 RMK AO2 SLP253
                 T01220006 $ =
2017-10-17 10:52 METAR KPYM 171452Z AUTO 10SM CLR 11/01 A3028 RMK AO2 SLP256 T01110011 50007 $ =
2017-10-17 09:52 METAR KPYM 171352Z AUTO 34008KT 10SM CLR 11/02 A3029 RMK AO2 SLP257 T01060022 =
2017-10-17 08:52 METAR KPYM 171252Z AUTO 34008KT 10SM CLR 08/02 A3028 RMK AO2 SLP255 T00830022 =
2017-10-17 07:52 METAR KPYM 171152Z AUTO 33006KT 10SM CLR 06/02 A3026 RMK AO2 SLP248 T00610017
                 10067 20044 51020 =
2017-10-17 06:52 METAR KPYM 171052Z AUTO 32006KT 10SM CLR 05/01 A3024 RMK AO2 SLP241 T00500011 $
                 =
2017-10-17 05:52 METAR KPYM 170952Z AUTO 32006KT 10SM CLR 05/01 A3023 RMK AO2 SLP237 T00500006 $
                 =
2017-10-17 04:52 METAR KPYM 170852Z AUTO 32008KT 10SM BKN046 06/01 A3020 RMK AO2 SLP228 T00610006
                 53017 $ =
2017-10-17 03:52 METAR KPYM 170752Z AUTO 32007KT 10SM BKN041 07/01 A3018 RMK AO2 SLP220 T00670006
                 $ =

Support USWX by starting your Amazon purchase here.